createdAt,value
2019-05-29T00:00:05.817Z,954.19
2019-05-29T00:01:09.043Z,954.15
2019-05-29T00:02:05.878Z,954.18
2019-05-29T00:03:06.129Z,954.18
2019-05-29T00:04:06.072Z,954.22
2019-05-29T00:05:05.937Z,954.22
2019-05-29T00:06:06.109Z,954.24
2019-05-29T00:07:06.005Z,954.25
2019-05-29T00:08:06.179Z,954.31
2019-05-29T00:09:05.949Z,954.28
2019-05-29T00:10:06.099Z,954.28
2019-05-29T00:11:05.975Z,954.30
2019-05-29T00:12:07.475Z,954.32
2019-05-29T00:13:06.105Z,954.32
2019-05-29T00:14:18.829Z,954.32
2019-05-29T00:15:06.111Z,954.33
2019-05-29T00:16:06.144Z,954.34
2019-05-29T00:17:06.302Z,954.33
2019-05-29T00:18:06.043Z,954.35
2019-05-29T00:19:04.884Z,954.33
2019-05-29T00:20:06.169Z,954.36
2019-05-29T00:21:05.238Z,954.31
2019-05-29T00:22:06.019Z,954.36
2019-05-29T00:23:06.310Z,954.36
2019-05-29T00:24:04.932Z,954.39
2019-05-29T00:25:04.933Z,954.37
2019-05-29T00:26:04.945Z,954.38
2019-05-29T00:27:05.417Z,954.38
2019-05-29T00:28:04.963Z,954.38
2019-05-29T00:29:05.678Z,954.35
2019-05-29T00:30:04.989Z,954.35
2019-05-29T00:31:05.809Z,954.39
2019-05-29T00:32:04.990Z,954.35
2019-05-29T00:33:05.975Z,954.36
2019-05-29T00:34:05.007Z,954.33
2019-05-29T00:35:05.950Z,954.33
2019-05-29T00:36:06.097Z,954.35
2019-05-29T00:37:06.278Z,954.36
2019-05-29T00:38:06.392Z,954.37
2019-05-29T00:39:05.058Z,954.43
2019-05-29T00:40:05.058Z,954.41
2019-05-29T00:41:05.063Z,954.39
2019-05-29T00:42:05.075Z,954.42
2019-05-29T00:43:13.831Z,954.41
2019-05-29T00:45:11.480Z,954.46
2019-05-29T00:46:19.298Z,954.45
2019-05-29T00:48:16.178Z,954.44
2019-05-29T00:49:24.816Z,954.49
2019-05-29T00:51:23.149Z,954.46
2019-05-29T00:52:23.152Z,954.46
2019-05-29T00:53:31.847Z,954.48
2019-05-29T00:55:28.668Z,954.50
2019-05-29T00:56:28.685Z,954.51
2019-05-29T00:58:23.155Z,954.54
2019-05-29T00:59:23.097Z,954.55
2019-05-29T01:01:28.712Z,954.53
2019-05-29T01:02:28.729Z,954.57
2019-05-29T01:04:34.168Z,954.57
2019-05-29T01:05:34.139Z,954.56
2019-05-29T01:06:34.126Z,954.57
2019-05-29T01:07:34.165Z,954.59
2019-05-29T01:08:34.159Z,954.62
2019-05-29T01:09:34.143Z,954.63
2019-05-29T01:10:34.160Z,954.65
2019-05-29T01:11:34.171Z,954.66
2019-05-29T01:14:05.835Z,954.67
2019-05-29T01:15:05.832Z,954.63
2019-05-29T01:16:05.842Z,954.65
2019-05-29T01:17:05.852Z,954.65
2019-05-29T01:18:05.864Z,954.65
2019-05-29T01:19:05.868Z,954.67
2019-05-29T01:20:05.889Z,954.68
2019-05-29T01:21:05.878Z,954.64
2019-05-29T01:22:05.892Z,954.66
2019-05-29T01:23:05.903Z,954.65
2019-05-29T01:24:05.905Z,954.67
2019-05-29T01:25:05.914Z,954.67
2019-05-29T01:26:05.920Z,954.69
2019-05-29T01:27:05.932Z,954.66
2019-05-29T01:28:05.943Z,954.68
2019-05-29T01:29:05.949Z,954.67
2019-05-29T01:30:05.960Z,954.70
2019-05-29T01:31:05.969Z,954.71
2019-05-29T01:32:05.976Z,954.72
2019-05-29T01:33:05.985Z,954.74
2019-05-29T01:34:05.991Z,954.71
2019-05-29T01:35:05.999Z,954.71
2019-05-29T01:36:06.007Z,954.78
2019-05-29T01:37:06.012Z,954.75
2019-05-29T01:38:06.026Z,954.78
2019-05-29T01:39:06.031Z,954.78
2019-05-29T01:40:19.095Z,954.74
2019-05-29T01:41:06.045Z,954.74
2019-05-29T01:42:06.059Z,954.75
2019-05-29T01:43:06.064Z,954.74
2019-05-29T01:44:06.073Z,954.71
2019-05-29T01:45:08.282Z,954.75
2019-05-29T01:46:06.090Z,954.74
2019-05-29T01:47:06.099Z,954.78
2019-05-29T01:48:06.106Z,954.77
2019-05-29T01:49:06.115Z,954.79
2019-05-29T01:50:06.123Z,954.79
2019-05-29T01:51:06.129Z,954.81
2019-05-29T01:52:06.137Z,954.82
2019-05-29T01:53:06.158Z,954.82
2019-05-29T01:54:06.158Z,954.83
2019-05-29T01:55:06.165Z,954.81
2019-05-29T01:56:06.171Z,954.85
2019-05-29T01:57:06.181Z,954.81
2019-05-29T01:58:06.187Z,954.80
2019-05-29T01:59:06.195Z,954.83
2019-05-29T02:00:06.205Z,954.85
2019-05-29T02:01:06.212Z,954.86
2019-05-29T02:02:06.219Z,954.85
2019-05-29T02:03:06.230Z,954.83
2019-05-29T02:04:06.231Z,954.84
2019-05-29T02:05:06.246Z,954.85
2019-05-29T02:06:06.255Z,954.84
2019-05-29T02:07:06.261Z,954.85
2019-05-29T02:08:06.276Z,954.84
2019-05-29T02:09:06.282Z,954.84
2019-05-29T02:10:06.289Z,954.85
2019-05-29T02:11:06.296Z,954.84
2019-05-29T02:12:06.305Z,954.90
2019-05-29T02:13:06.312Z,954.91
2019-05-29T02:14:06.316Z,954.87
2019-05-29T02:15:20.939Z,954.89
2019-05-29T02:16:06.336Z,954.91
2019-05-29T02:17:06.349Z,954.91
2019-05-29T02:18:06.353Z,954.92
2019-05-29T02:19:06.361Z,954.94
2019-05-29T02:20:06.377Z,954.93
2019-05-29T02:21:06.378Z,954.95
2019-05-29T02:22:06.388Z,954.95
2019-05-29T02:23:06.396Z,954.96
2019-05-29T02:24:06.403Z,954.93
2019-05-29T02:25:06.409Z,954.94
2019-05-29T02:26:06.416Z,954.96
2019-05-29T02:27:06.421Z,954.98
2019-05-29T02:28:06.433Z,954.97
2019-05-29T02:29:06.442Z,954.98
2019-05-29T02:30:06.455Z,955.01
2019-05-29T02:31:06.463Z,955.02
2019-05-29T02:32:06.468Z,955.01
2019-05-29T02:33:06.475Z,955.00
2019-05-29T02:34:07.489Z,955.00
2019-05-29T02:35:06.492Z,954.99
2019-05-29T02:36:06.496Z,955.05
2019-05-29T02:37:06.508Z,955.06
2019-05-29T02:38:06.516Z,955.05
2019-05-29T02:39:06.522Z,955.06
2019-05-29T02:40:06.533Z,955.05
2019-05-29T02:41:06.540Z,955.06
2019-05-29T02:42:06.555Z,955.12
2019-05-29T02:43:06.560Z,955.07
2019-05-29T02:44:06.570Z,955.08
2019-05-29T02:45:06.579Z,955.08
2019-05-29T02:46:06.593Z,955.11
2019-05-29T02:47:06.592Z,955.12
2019-05-29T02:48:06.594Z,955.13
2019-05-29T02:49:06.607Z,955.12
2019-05-29T02:50:06.621Z,955.15
2019-05-29T02:51:06.622Z,955.19
2019-05-29T02:52:06.640Z,955.20
2019-05-29T02:53:06.643Z,955.20
2019-05-29T02:54:06.644Z,955.23
2019-05-29T02:55:06.658Z,955.23
2019-05-29T02:56:06.662Z,955.24
2019-05-29T02:57:06.674Z,955.26
2019-05-29T02:58:06.683Z,955.28
2019-05-29T02:59:06.686Z,955.31
2019-05-29T03:00:06.698Z,955.30
2019-05-29T03:01:06.785Z,955.31
2019-05-29T03:02:06.713Z,955.34
2019-05-29T03:03:06.719Z,955.33
2019-05-29T03:04:06.731Z,955.36
2019-05-29T03:05:06.741Z,955.35
2019-05-29T03:06:06.746Z,955.38
2019-05-29T03:07:06.753Z,955.37
2019-05-29T03:08:06.762Z,955.41
2019-05-29T03:09:06.769Z,955.42
2019-05-29T03:10:06.779Z,955.43
2019-05-29T03:11:06.793Z,955.42
2019-05-29T03:12:06.793Z,955.46
2019-05-29T03:13:06.804Z,955.45
2019-05-29T03:14:06.817Z,955.47
2019-05-29T03:15:06.913Z,955.48
2019-05-29T03:16:11.235Z,955.52
2019-05-29T03:17:06.838Z,955.50
2019-05-29T03:18:06.846Z,955.54
2019-05-29T03:19:06.868Z,955.54
2019-05-29T03:20:06.859Z,955.53
2019-05-29T03:21:06.872Z,955.55
2019-05-29T03:22:06.875Z,955.54
2019-05-29T03:23:06.877Z,955.55
2019-05-29T03:24:06.891Z,955.55
2019-05-29T03:25:06.901Z,955.57
2019-05-29T03:26:06.902Z,955.60
2019-05-29T03:27:06.924Z,955.60
2019-05-29T03:28:06.922Z,955.63
2019-05-29T03:29:06.929Z,955.63
2019-05-29T03:30:06.943Z,955.66
2019-05-29T03:31:06.951Z,955.66
2019-05-29T03:32:13.271Z,955.64
2019-05-29T03:33:06.968Z,955.66
2019-05-29T03:34:06.975Z,955.66
2019-05-29T03:35:06.981Z,955.68
2019-05-29T03:36:06.988Z,955.69
2019-05-29T03:37:06.996Z,955.73
2019-05-29T03:38:06.998Z,955.69
2019-05-29T03:39:07.012Z,955.73
2019-05-29T03:40:07.023Z,955.74
2019-05-29T03:41:07.032Z,955.73
2019-05-29T03:42:07.032Z,955.75
2019-05-29T03:43:07.047Z,955.73
2019-05-29T03:44:10.312Z,955.74
2019-05-29T03:45:07.066Z,955.75
2019-05-29T03:46:07.069Z,955.77
2019-05-29T03:47:07.078Z,955.81
2019-05-29T03:48:07.096Z,955.83
2019-05-29T03:49:07.101Z,955.82
2019-05-29T03:50:07.128Z,955.85
2019-05-29T03:51:07.115Z,955.86
2019-05-29T03:52:07.132Z,955.89
2019-05-29T03:53:07.139Z,955.90
2019-05-29T03:54:07.137Z,955.90
2019-05-29T03:55:07.143Z,955.93
2019-05-29T03:56:07.153Z,955.94
2019-05-29T03:57:07.160Z,955.96
2019-05-29T03:58:07.161Z,955.97
2019-05-29T03:59:07.175Z,955.97
2019-05-29T04:00:07.206Z,955.99
2019-05-29T04:01:07.259Z,955.99
2019-05-29T04:02:07.205Z,956.02
2019-05-29T04:03:07.216Z,956.01
2019-05-29T04:04:07.217Z,956.03
2019-05-29T04:05:07.230Z,956.03
2019-05-29T04:06:07.238Z,956.06
2019-05-29T04:07:07.241Z,956.08
2019-05-29T04:08:07.248Z,956.10
2019-05-29T04:09:07.262Z,956.15
2019-05-29T04:10:07.277Z,956.09
2019-05-29T04:11:07.328Z,956.14
2019-05-29T04:12:07.281Z,956.12
2019-05-29T04:13:07.288Z,956.13
2019-05-29T04:14:07.296Z,956.11
2019-05-29T04:15:07.304Z,956.13
2019-05-29T04:16:07.321Z,956.12
2019-05-29T04:17:07.333Z,956.15
2019-05-29T04:18:07.328Z,956.16
2019-05-29T04:19:07.345Z,956.15
2019-05-29T04:20:07.345Z,956.18
2019-05-29T04:21:07.355Z,956.23
2019-05-29T04:22:07.359Z,956.21
2019-05-29T04:23:07.370Z,956.24
2019-05-29T04:24:07.379Z,956.25
2019-05-29T04:25:07.387Z,956.26
2019-05-29T04:26:07.391Z,956.27
2019-05-29T04:27:07.398Z,956.30
2019-05-29T04:28:07.410Z,956.32
2019-05-29T04:29:07.418Z,956.35
2019-05-29T04:30:07.429Z,956.36
2019-05-29T04:31:07.445Z,956.36
2019-05-29T04:32:07.439Z,956.38
2019-05-29T04:33:07.451Z,956.40
2019-05-29T04:34:07.461Z,956.40
2019-05-29T04:35:07.467Z,956.39
2019-05-29T04:36:07.475Z,956.44
2019-05-29T04:37:07.612Z,956.45
2019-05-29T04:38:07.489Z,956.52
2019-05-29T04:39:07.497Z,956.45
2019-05-29T04:40:07.509Z,956.47
2019-05-29T04:41:07.514Z,956.50
2019-05-29T04:42:07.520Z,956.49
2019-05-29T04:43:07.531Z,956.53
2019-05-29T04:44:07.543Z,956.56
2019-05-29T04:45:07.548Z,956.57
2019-05-29T04:46:07.558Z,956.59
2019-05-29T04:47:11.528Z,956.60
2019-05-29T04:48:07.567Z,956.66
2019-05-29T04:49:07.580Z,956.68
2019-05-29T04:50:07.585Z,956.68
2019-05-29T04:51:07.591Z,956.69
2019-05-29T04:52:07.613Z,956.66
2019-05-29T04:53:07.607Z,956.73
2019-05-29T04:54:07.620Z,956.74
2019-05-29T04:55:07.625Z,956.73
2019-05-29T04:56:07.634Z,956.77
2019-05-29T04:57:07.643Z,956.76
2019-05-29T04:58:07.661Z,956.79
2019-05-29T04:59:07.658Z,956.79
2019-05-29T05:00:07.669Z,956.81
2019-05-29T05:01:07.697Z,956.83
2019-05-29T05:02:07.687Z,956.82
2019-05-29T05:03:07.692Z,956.82
2019-05-29T05:04:07.700Z,956.88
2019-05-29T05:05:07.707Z,956.87
2019-05-29T05:06:07.719Z,956.87
2019-05-29T05:07:07.726Z,956.87
2019-05-29T05:08:07.736Z,956.89
2019-05-29T05:09:07.740Z,956.90
2019-05-29T05:10:07.752Z,956.91
2019-05-29T05:11:07.754Z,956.93
2019-05-29T05:12:07.765Z,956.95
2019-05-29T05:13:07.771Z,956.94
2019-05-29T05:14:07.782Z,956.95
2019-05-29T05:15:07.790Z,957.00
2019-05-29T05:16:07.801Z,957.00
2019-05-29T05:17:07.819Z,957.00
2019-05-29T05:18:07.816Z,957.02
2019-05-29T05:19:07.822Z,957.02
2019-05-29T05:20:07.830Z,957.05
2019-05-29T05:21:07.837Z,957.05
2019-05-29T05:22:07.847Z,957.05
2019-05-29T05:23:07.856Z,957.10
2019-05-29T05:24:07.870Z,957.11
2019-05-29T05:25:07.880Z,957.15
2019-05-29T05:26:07.886Z,957.14
2019-05-29T05:27:07.886Z,957.15
2019-05-29T05:28:07.896Z,957.13
2019-05-29T05:29:07.910Z,957.16
2019-05-29T05:30:09.056Z,957.17
2019-05-29T05:31:07.932Z,957.16
2019-05-29T05:32:07.932Z,957.22
2019-05-29T05:33:07.939Z,957.27
2019-05-29T05:34:07.949Z,957.30
2019-05-29T05:35:07.955Z,957.30
2019-05-29T05:36:07.965Z,957.32
2019-05-29T05:37:07.971Z,957.31
2019-05-29T05:38:07.981Z,957.33
2019-05-29T05:39:07.988Z,957.36
2019-05-29T05:40:07.997Z,957.36
2019-05-29T05:41:08.009Z,957.37
2019-05-29T05:42:08.014Z,957.33
2019-05-29T05:43:22.863Z,957.35
2019-05-29T05:44:08.035Z,957.37
2019-05-29T05:45:08.038Z,957.38
2019-05-29T05:46:08.046Z,957.40
2019-05-29T05:47:08.054Z,957.41
2019-05-29T05:48:08.067Z,957.43
2019-05-29T05:49:08.078Z,957.40
2019-05-29T05:50:08.083Z,957.41
2019-05-29T05:51:08.092Z,957.43
2019-05-29T05:52:08.096Z,957.45
2019-05-29T05:53:08.114Z,957.48
2019-05-29T05:54:08.116Z,957.49
2019-05-29T05:55:08.127Z,957.47
2019-05-29T05:56:08.128Z,957.47
2019-05-29T05:57:08.144Z,957.54
2019-05-29T05:58:08.158Z,957.61
2019-05-29T05:59:08.162Z,957.59
2019-05-29T06:00:08.166Z,957.57
2019-05-29T06:01:08.200Z,957.55
2019-05-29T06:02:08.184Z,957.55
2019-05-29T06:03:08.200Z,957.56
2019-05-29T06:04:08.203Z,957.56
2019-05-29T06:05:08.211Z,957.58
2019-05-29T06:06:08.219Z,957.53
2019-05-29T06:07:08.228Z,957.55
2019-05-29T06:08:08.238Z,957.55
2019-05-29T06:09:08.250Z,957.55
2019-05-29T06:10:08.260Z,957.55
2019-05-29T06:11:08.264Z,957.54
2019-05-29T06:12:08.272Z,957.56
2019-05-29T06:13:08.279Z,957.58
2019-05-29T06:14:08.288Z,957.58
2019-05-29T06:15:08.306Z,957.58
2019-05-29T06:16:08.306Z,957.63
2019-05-29T06:17:08.316Z,957.64
2019-05-29T06:18:20.687Z,957.61
2019-05-29T06:19:08.341Z,957.69
2019-05-29T06:20:08.348Z,957.64
2019-05-29T06:21:08.353Z,957.62
2019-05-29T06:22:08.367Z,957.70
2019-05-29T06:23:08.369Z,957.72
2019-05-29T06:24:08.381Z,957.73
2019-05-29T06:25:08.401Z,957.76
2019-05-29T06:26:08.398Z,957.76
2019-05-29T06:27:08.405Z,957.74
2019-05-29T06:28:08.414Z,957.76
2019-05-29T06:29:08.425Z,957.79
2019-05-29T06:30:08.429Z,957.80
2019-05-29T06:31:08.437Z,957.90
2019-05-29T06:32:08.444Z,957.87
2019-05-29T06:33:08.463Z,957.87
2019-05-29T06:34:08.465Z,957.90
2019-05-29T06:35:08.471Z,957.92
2019-05-29T06:36:08.486Z,957.94
2019-05-29T06:37:08.499Z,957.90
2019-05-29T06:38:08.502Z,957.91
2019-05-29T06:39:08.506Z,957.93
2019-05-29T06:40:08.522Z,957.95
2019-05-29T06:41:08.526Z,957.92
2019-05-29T06:42:08.536Z,957.96
2019-05-29T06:43:11.809Z,957.96
2019-05-29T06:44:08.554Z,958.00
2019-05-29T06:45:08.831Z,957.97
2019-05-29T06:46:08.586Z,958.00
2019-05-29T06:47:08.583Z,957.99
2019-05-29T06:48:08.591Z,957.98
2019-05-29T06:49:08.599Z,957.95
2019-05-29T06:50:08.608Z,957.97
2019-05-29T06:51:08.613Z,957.92
2019-05-29T06:52:09.336Z,957.99
2019-05-29T06:53:08.641Z,957.99
2019-05-29T06:54:08.649Z,957.94
2019-05-29T06:55:08.656Z,957.98
2019-05-29T06:56:08.700Z,958.00
2019-05-29T06:57:08.680Z,958.02
2019-05-29T06:58:08.691Z,958.06
2019-05-29T06:59:08.693Z,958.16
2019-05-29T07:00:08.704Z,958.22
2019-05-29T07:01:08.740Z,958.22
2019-05-29T07:02:08.719Z,958.13
2019-05-29T07:03:08.721Z,958.14
2019-05-29T07:04:12.271Z,958.18
2019-05-29T07:05:08.750Z,958.20
2019-05-29T07:06:08.781Z,958.23
2019-05-29T07:07:08.768Z,958.23
2019-05-29T07:08:19.135Z,958.28
2019-05-29T07:09:08.785Z,958.28
2019-05-29T07:10:08.798Z,958.34
2019-05-29T07:11:08.803Z,958.34
2019-05-29T07:12:08.817Z,958.33
2019-05-29T07:13:08.822Z,958.34
2019-05-29T07:14:08.854Z,958.40
2019-05-29T07:15:08.846Z,958.41
2019-05-29T07:16:08.846Z,958.40
2019-05-29T07:17:08.913Z,958.38
2019-05-29T07:18:08.869Z,958.41
2019-05-29T07:19:24.568Z,958.37
2019-05-29T07:20:08.890Z,958.34
2019-05-29T07:21:08.901Z,958.34
2019-05-29T07:22:08.901Z,958.34
2019-05-29T07:23:08.921Z,958.33
2019-05-29T07:24:08.923Z,958.32
2019-05-29T07:25:08.932Z,958.36
2019-05-29T07:26:08.946Z,958.40
2019-05-29T07:27:13.407Z,958.51
2019-05-29T07:28:08.959Z,958.50
2019-05-29T07:29:08.972Z,958.53
2019-05-29T07:30:08.979Z,958.54
2019-05-29T07:31:08.997Z,958.50
2019-05-29T07:32:08.998Z,958.54
2019-05-29T07:33:11.462Z,958.55
2019-05-29T07:34:09.013Z,958.50
2019-05-29T07:35:09.029Z,958.52
2019-05-29T07:36:09.032Z,958.58
2019-05-29T07:37:09.045Z,958.67
2019-05-29T07:38:09.055Z,958.71
2019-05-29T07:39:09.063Z,958.71
2019-05-29T07:40:09.071Z,958.70
2019-05-29T07:41:09.083Z,958.70
2019-05-29T07:42:09.095Z,958.67
2019-05-29T07:43:09.121Z,958.64
2019-05-29T07:44:09.117Z,958.55
2019-05-29T07:45:09.120Z,958.63
2019-05-29T07:46:09.126Z,958.67
2019-05-29T07:47:10.000Z,958.63
2019-05-29T07:48:09.148Z,958.62
2019-05-29T07:49:09.160Z,958.62
2019-05-29T07:50:09.167Z,958.60
2019-05-29T07:51:09.177Z,958.56
2019-05-29T07:52:09.188Z,958.58
2019-05-29T07:53:09.199Z,958.54
2019-05-29T07:54:09.205Z,958.53
2019-05-29T07:55:09.240Z,958.56
2019-05-29T07:56:21.648Z,958.60
2019-05-29T07:57:09.233Z,958.69
2019-05-29T07:58:09.245Z,958.71
2019-05-29T07:59:09.254Z,958.77
2019-05-29T08:00:09.263Z,958.78
2019-05-29T08:01:13.557Z,958.82
2019-05-29T08:02:09.280Z,958.83
2019-05-29T08:03:09.290Z,958.77
2019-05-29T08:04:09.300Z,958.80
2019-05-29T08:05:09.309Z,958.84
2019-05-29T08:06:09.318Z,958.88
2019-05-29T08:07:09.330Z,958.83
2019-05-29T08:08:09.341Z,958.85
2019-05-29T08:09:09.346Z,958.91
2019-05-29T08:10:09.355Z,958.90
2019-05-29T08:11:09.366Z,958.88
2019-05-29T08:12:09.374Z,958.84
2019-05-29T08:13:09.384Z,958.86
2019-05-29T08:14:09.388Z,958.82
2019-05-29T08:15:09.398Z,958.84
2019-05-29T08:16:09.411Z,958.82
2019-05-29T08:17:09.419Z,958.86
2019-05-29T08:18:09.426Z,958.89
2019-05-29T08:19:09.444Z,958.93
2019-05-29T08:20:09.460Z,958.89
2019-05-29T08:21:09.455Z,958.91
2019-05-29T08:22:09.469Z,958.88
2019-05-29T08:23:09.548Z,958.93
2019-05-29T08:24:09.486Z,958.98
2019-05-29T08:25:09.497Z,958.99
2019-05-29T08:26:09.503Z,959.03
2019-05-29T08:27:09.513Z,958.98
2019-05-29T08:28:09.523Z,959.02
2019-05-29T08:29:09.525Z,959.11
2019-05-29T08:30:09.546Z,959.16
2019-05-29T08:31:09.543Z,959.17
2019-05-29T08:32:09.562Z,959.19
2019-05-29T08:33:09.567Z,959.10
2019-05-29T08:34:09.576Z,959.07
2019-05-29T08:35:09.584Z,959.02
2019-05-29T08:36:09.606Z,959.05
2019-05-29T08:37:09.607Z,959.12
2019-05-29T08:38:09.614Z,959.10
2019-05-29T08:39:09.623Z,959.15
2019-05-29T08:40:09.641Z,959.17
2019-05-29T08:41:09.651Z,959.21
2019-05-29T08:42:22.753Z,959.25
2019-05-29T08:43:09.663Z,959.24
2019-05-29T08:44:09.674Z,959.24
2019-05-29T08:45:09.705Z,959.29
2019-05-29T08:46:09.690Z,959.30
2019-05-29T08:47:11.004Z,959.29
2019-05-29T08:48:09.705Z,959.27
2019-05-29T08:49:09.723Z,959.26
2019-05-29T08:50:17.863Z,959.18
2019-05-29T08:51:09.740Z,959.27
2019-05-29T08:52:12.319Z,959.25
2019-05-29T08:53:09.759Z,959.26
2019-05-29T08:54:23.381Z,959.23
2019-05-29T08:55:09.778Z,959.33
2019-05-29T08:56:09.793Z,959.28
2019-05-29T08:57:09.798Z,959.27
2019-05-29T08:58:09.806Z,959.23
2019-05-29T08:59:09.818Z,959.29
2019-05-29T09:00:09.823Z,959.23
2019-05-29T09:01:09.839Z,959.26
2019-05-29T09:02:09.854Z,959.21
2019-05-29T09:03:09.857Z,959.30
2019-05-29T09:04:09.868Z,959.32
2019-05-29T09:05:09.878Z,959.35
2019-05-29T09:06:13.357Z,959.33
2019-05-29T09:07:09.895Z,959.23
2019-05-29T09:08:09.907Z,959.27
2019-05-29T09:09:09.910Z,959.23
2019-05-29T09:10:09.926Z,959.29
2019-05-29T09:11:09.935Z,959.34
2019-05-29T09:12:09.948Z,959.43
2019-05-29T09:13:09.956Z,959.44
2019-05-29T09:14:09.968Z,959.46
2019-05-29T09:15:10.430Z,959.48
2019-05-29T09:16:09.982Z,959.49
2019-05-29T09:17:09.997Z,959.47
2019-05-29T09:18:10.007Z,959.48
2019-05-29T09:19:10.019Z,959.42
2019-05-29T09:20:26.210Z,959.40
2019-05-29T09:21:10.038Z,959.35
2019-05-29T09:22:10.049Z,959.32
2019-05-29T09:23:10.059Z,959.24
2019-05-29T09:24:10.118Z,959.29
2019-05-29T09:25:10.078Z,959.24
2019-05-29T09:26:15.784Z,959.20
2019-05-29T09:27:10.097Z,959.22
2019-05-29T09:28:10.110Z,959.23
2019-05-29T09:29:10.119Z,959.19
2019-05-29T09:30:10.132Z,959.24
2019-05-29T09:31:10.137Z,959.21
2019-05-29T09:32:10.155Z,959.24
2019-05-29T09:33:10.162Z,959.32
2019-05-29T09:34:10.166Z,959.38
2019-05-29T09:35:10.180Z,959.35
2019-05-29T09:36:10.190Z,959.27
2019-05-29T09:37:10.276Z,959.24
2019-05-29T09:38:10.209Z,959.26
2019-05-29T09:39:10.218Z,959.30
2019-05-29T09:40:10.233Z,959.30
2019-05-29T09:41:10.242Z,959.33
2019-05-29T09:42:10.257Z,959.29
2019-05-29T09:43:10.266Z,959.32
2019-05-29T09:44:26.787Z,959.30
2019-05-29T09:45:10.319Z,959.29
2019-05-29T09:46:10.294Z,959.30
2019-05-29T09:47:10.308Z,959.29
2019-05-29T09:48:10.317Z,959.25
2019-05-29T09:49:10.323Z,959.27
2019-05-29T09:50:10.333Z,959.26
2019-05-29T09:51:20.774Z,959.25
2019-05-29T09:52:10.356Z,959.27
2019-05-29T09:53:10.365Z,959.24
2019-05-29T09:54:10.428Z,959.25
2019-05-29T09:55:10.385Z,959.28
2019-05-29T09:56:10.401Z,959.26
2019-05-29T09:57:10.407Z,959.31
2019-05-29T09:58:10.424Z,959.36
2019-05-29T09:59:10.427Z,959.36
2019-05-29T10:00:10.457Z,959.37
2019-05-29T10:01:22.718Z,959.38
2019-05-29T10:02:10.468Z,959.38
2019-05-29T10:03:10.467Z,959.38
2019-05-29T10:04:10.490Z,959.37
2019-05-29T10:05:10.488Z,959.37
2019-05-29T10:06:10.713Z,959.35
2019-05-29T10:07:10.510Z,959.34
2019-05-29T10:08:10.519Z,959.33
2019-05-29T10:09:10.530Z,959.34
2019-05-29T10:10:10.539Z,959.33
2019-05-29T10:11:11.215Z,959.37
2019-05-29T10:12:10.565Z,959.36
2019-05-29T10:13:10.573Z,959.44
2019-05-29T10:14:10.593Z,959.46
2019-05-29T10:15:10.596Z,959.54
2019-05-29T10:16:10.605Z,959.58
2019-05-29T10:17:12.682Z,959.57
2019-05-29T10:18:30.518Z,959.54
2019-05-29T10:19:10.634Z,959.57
2019-05-29T10:20:10.648Z,959.58
2019-05-29T10:21:10.659Z,959.55
2019-05-29T10:22:10.664Z,959.57
2019-05-29T10:23:10.675Z,959.56
2019-05-29T10:24:10.690Z,959.49
2019-05-29T10:25:10.705Z,959.48
2019-05-29T10:26:10.708Z,959.47
2019-05-29T10:27:10.723Z,959.50
2019-05-29T10:28:10.729Z,959.53
2019-05-29T10:29:10.906Z,959.52
2019-05-29T10:30:10.753Z,959.58
2019-05-29T10:31:10.762Z,959.59
2019-05-29T10:32:10.771Z,959.54
2019-05-29T10:33:10.782Z,959.51
2019-05-29T10:34:10.797Z,959.48
2019-05-29T10:35:10.805Z,959.47
2019-05-29T10:36:10.816Z,959.48
2019-05-29T10:37:10.827Z,959.45
2019-05-29T10:38:10.843Z,959.43
2019-05-29T10:39:12.984Z,959.43
2019-05-29T10:40:10.862Z,959.38
2019-05-29T10:41:10.869Z,959.43
2019-05-29T10:42:10.880Z,959.45
2019-05-29T10:43:10.893Z,959.44
2019-05-29T10:44:12.822Z,959.48
2019-05-29T10:45:10.911Z,959.49
2019-05-29T10:46:10.923Z,959.52
2019-05-29T10:47:10.929Z,959.53
2019-05-29T10:48:10.982Z,959.51
2019-05-29T10:49:10.960Z,959.58
2019-05-29T10:50:11.135Z,959.56
2019-05-29T10:51:10.977Z,959.57
2019-05-29T10:52:16.573Z,959.62
2019-05-29T10:53:10.994Z,959.60
2019-05-29T10:54:11.004Z,959.60
2019-05-29T10:55:11.011Z,959.59
2019-05-29T10:56:11.027Z,959.59
2019-05-29T10:57:11.037Z,959.54
2019-05-29T10:58:11.053Z,959.57
2019-05-29T10:59:11.056Z,959.58
2019-05-29T11:00:11.062Z,959.55
2019-05-29T11:01:11.082Z,959.59
2019-05-29T11:02:11.084Z,959.60
2019-05-29T11:03:11.099Z,959.56
2019-05-29T11:04:11.109Z,959.62
2019-05-29T11:05:11.114Z,959.56
2019-05-29T11:06:11.129Z,959.57
2019-05-29T11:07:11.139Z,959.56
2019-05-29T11:08:11.152Z,959.58
2019-05-29T11:09:11.161Z,959.60
2019-05-29T11:10:13.465Z,959.57
2019-05-29T11:11:11.185Z,959.56
2019-05-29T11:12:11.189Z,959.55
2019-05-29T11:13:11.203Z,959.58
2019-05-29T11:14:11.214Z,959.56
2019-05-29T11:15:20.947Z,959.59
2019-05-29T11:16:11.242Z,959.60
2019-05-29T11:17:11.244Z,959.68
2019-05-29T11:18:11.262Z,959.74
2019-05-29T11:19:11.270Z,959.70
2019-05-29T11:20:11.282Z,959.71
2019-05-29T11:21:11.287Z,959.67
2019-05-29T11:22:25.847Z,959.71
2019-05-29T11:23:11.306Z,959.71
2019-05-29T11:24:11.325Z,959.79
2019-05-29T11:25:22.379Z,959.95
2019-05-29T11:26:11.342Z,960.04
2019-05-29T11:27:11.354Z,960.23
2019-05-29T11:28:11.391Z,960.28
2019-05-29T11:29:11.381Z,960.32
2019-05-29T11:30:11.725Z,960.39
2019-05-29T11:31:11.456Z,960.44
2019-05-29T11:32:11.445Z,960.46
2019-05-29T11:33:11.435Z,960.50
2019-05-29T11:34:11.453Z,960.49
2019-05-29T11:35:11.461Z,960.51
2019-05-29T11:36:13.590Z,960.50
2019-05-29T11:37:11.502Z,960.51
2019-05-29T11:38:11.517Z,960.52
2019-05-29T11:39:11.525Z,960.43
2019-05-29T11:40:11.540Z,960.47
2019-05-29T11:41:25.305Z,960.34
2019-05-29T11:42:26.383Z,960.28
2019-05-29T11:43:11.599Z,960.39
2019-05-29T11:44:11.614Z,960.23
2019-05-29T11:45:11.631Z,960.18
2019-05-29T11:46:11.646Z,960.19
2019-05-29T11:47:11.676Z,960.25
2019-05-29T11:48:11.686Z,960.27
2019-05-29T11:49:11.703Z,960.33
2019-05-29T11:50:19.355Z,960.33
2019-05-29T11:51:11.733Z,960.32
2019-05-29T11:52:23.285Z,960.27
2019-05-29T11:53:11.770Z,959.92
2019-05-29T11:54:11.781Z,960.11
2019-05-29T11:55:11.797Z,960.47
2019-05-29T11:56:11.820Z,960.33
2019-05-29T11:57:11.833Z,960.56
2019-05-29T11:58:29.764Z,960.19
2019-05-29T11:59:11.866Z,960.15
2019-05-29T12:00:19.606Z,960.20
2019-05-29T12:01:11.899Z,960.29
2019-05-29T12:02:11.916Z,960.33
2019-05-29T12:03:11.934Z,960.32
2019-05-29T12:04:25.681Z,960.37
2019-05-29T12:05:11.960Z,960.54
2019-05-29T12:06:11.981Z,960.55
2019-05-29T12:07:11.995Z,960.59
2019-05-29T12:08:12.011Z,960.46
2019-05-29T12:09:12.030Z,960.32
2019-05-29T12:10:12.084Z,960.13
2019-05-29T12:11:12.059Z,960.15
2019-05-29T12:12:12.076Z,960.04
2019-05-29T12:13:12.098Z,959.88
2019-05-29T12:14:12.174Z,959.87
2019-05-29T12:15:15.646Z,959.97
2019-05-29T12:16:12.150Z,959.95
2019-05-29T12:17:12.158Z,959.83
2019-05-29T12:18:23.538Z,959.84
2019-05-29T12:19:12.189Z,959.87
2019-05-29T12:20:26.960Z,959.82
2019-05-29T12:21:12.211Z,959.85
2019-05-29T12:22:12.233Z,959.88
2019-05-29T12:23:25.218Z,959.86
2019-05-29T12:24:12.261Z,959.95
2019-05-29T12:25:12.278Z,959.88
2019-05-29T12:26:21.953Z,959.91
2019-05-29T12:27:12.301Z,959.89
2019-05-29T12:28:12.316Z,959.96
2019-05-29T12:29:12.347Z,959.99
2019-05-29T12:30:12.345Z,960.01
2019-05-29T12:31:12.367Z,960.04
2019-05-29T12:32:12.821Z,960.04
2019-05-29T12:33:12.382Z,960.04
2019-05-29T12:34:19.108Z,960.07
2019-05-29T12:35:12.406Z,960.08
2019-05-29T12:36:12.419Z,960.07
2019-05-29T12:37:12.433Z,960.08